»·PEaware :: AAL343 KBOI-KJAC

AAL343 :: KBOI-KJAC

FLIGHT INFORMATION

Flight Status: Arrived
Operator:
American Airlines
More flights by this operator :: More flights under this callsign
Pilot: James W. (12414)
Aircraft: BOEING 737-800
(B738)
More flights by this aircraft type
Origin: KBOI Boise Air Terminal/Gowen
United States
Destination: KJAC Jackson Hole
United States
More flights between these airports :: More routes between these airports
Route: BOI3 NATZZ LEIDY DNW
File this flight plan on PilotEdge
Remarks:
Altitude:
(Current/Filed)
330ft
Speed:
(Current/Filed)
450kts
Departed: 21-Feb-18 06:23 PM
Arrived: 21-Feb-18 07:15 PM
Distance/Time
Traveled:
238nm/0:52
Distance/Time
To Go:
Arrived

Flight Plot

Page will automatically refresh every two minutes.

Flight plan parsing failed; only flown route is shown


Map Options




Map Legend


Flown Route
Filed Route
Departure Airport
Arrival Airport
Navaid (VOR, NDB)
Fix

Horizontal Profiles

Position Reports

Time Latitude Longitude Heading Altitude Ground
Speed
21-Feb-18 18:02 43.567677 -116.218663 205 2878ft 0kts
21-Feb-18 18:03 43.567677 -116.218663 205 2878ft 0kts
21-Feb-18 18:04 43.567677 -116.218663 205 2878ft 0kts
21-Feb-18 18:05 43.567677 -116.218663 205 2878ft 0kts
21-Feb-18 18:06 43.567677 -116.218663 205 2878ft 0kts
21-Feb-18 18:07 43.567677 -116.218663 205 2878ft 0kts
21-Feb-18 18:08 43.567677 -116.218663 205 2878ft 0kts
21-Feb-18 18:09 43.567677 -116.218663 205 2878ft 0kts
21-Feb-18 18:10 43.567677 -116.218663 205 2878ft 0kts
21-Feb-18 18:11 43.567677 -116.218663 205 2878ft 0kts
21-Feb-18 18:12 43.567677 -116.218663 205 2878ft 0kts
21-Feb-18 18:13 43.567677 -116.218663 205 2878ft 0kts
21-Feb-18 18:14 43.567677 -116.218663 205 2879ft 0kts
21-Feb-18 18:15 43.568000 -116.218510 164 2879ft 1kts
21-Feb-18 18:16 43.568094 -116.218629 110 2878ft 0kts
21-Feb-18 18:17 43.568094 -116.218629 110 2878ft 0kts
21-Feb-18 18:18 43.568094 -116.218629 110 2878ft 0kts
21-Feb-18 18:19 43.567851 -116.217387 135 2878ft 10kts
21-Feb-18 18:20 43.566955 -116.217105 175 2879ft 0kts
21-Feb-18 18:21 43.566955 -116.217105 175 2879ft 0kts
21-Feb-18 18:22 43.566955 -116.217105 175 2879ft 0kts
21-Feb-18 18:24 43.566955 -116.217105 175 2879ft 0kts
21-Feb-18 18:25 43.566955 -116.217105 175 2879ft 0kts
21-Feb-18 18:26 43.565792 -116.218478 296 2878ft 19kts
21-Feb-18 18:27 43.566851 -116.223334 296 2878ft 9kts
21-Feb-18 18:28 43.568419 -116.228039 293 2878ft 11kts
21-Feb-18 18:29 43.570677 -116.234688 294 2878ft 21kts
21-Feb-18 18:30 43.568859 -116.232750 115 2879ft 69kts
21-Feb-18 18:31 43.549623 -116.173149 111 4201ft 213kts
21-Feb-18 18:32 43.535696 -116.095295 87 6107ft 216kts
21-Feb-18 18:33 43.539829 -116.009421 86 8027ft 243kts
21-Feb-18 18:34 43.544849 -115.904970 87 10096ft 289kts
21-Feb-18 18:35 43.550239 -115.790479 87 12024ft 332kts
21-Feb-18 18:36 43.556496 -115.653837 87 13241ft 400kts
21-Feb-18 18:37 43.562218 -115.526499 86 15630ft 414kts
21-Feb-18 18:38 43.569139 -115.368682 86 18339ft 431kts
21-Feb-18 18:39 43.575403 -115.178763 89 21256ft 449kts
21-Feb-18 18:40 43.576298 -115.035998 89 23253ft 463kts
21-Feb-18 18:41 43.576890 -114.859156 89 25496ft 479kts
21-Feb-18 18:42 43.577615 -114.677604 88 28019ft 483kts
21-Feb-18 18:43 43.578660 -114.495209 88 30575ft 479kts
21-Feb-18 18:44 43.579943 -114.317405 88 32760ft 474kts
21-Feb-18 18:45 43.581545 -114.139078 87 34646ft 471kts
21-Feb-18 18:46 43.583381 -113.962051 87 35096ft 468kts
21-Feb-18 18:47 43.585485 -113.785660 87 35101ft 468kts
21-Feb-18 18:48 43.587828 -113.610420 86 35101ft 468kts
21-Feb-18 18:49 43.590481 -113.432892 86 35110ft 468kts
21-Feb-18 18:50 43.593373 -113.259036 86 35132ft 472kts
21-Feb-18 18:51 43.596724 -113.074547 86 35139ft 488kts
21-Feb-18 18:52 43.600258 -112.893455 85 35140ft 482kts
21-Feb-18 18:53 43.604163 -112.710218 84 34538ft 479kts
21-Feb-18 18:54 43.608350 -112.527080 84 33443ft 482kts
21-Feb-18 18:55 43.612827 -112.344525 85 31499ft 488kts
21-Feb-18 18:56 43.617685 -112.158804 85 29549ft 495kts
21-Feb-18 18:57 43.622877 -111.970680 86 27591ft 500kts
21-Feb-18 18:58 43.628159 -111.790314 86 25573ft 459kts
21-Feb-18 18:59 43.633224 -111.624942 86 24106ft 414kts
21-Feb-18 19:00 43.638251 -111.467570 86 24100ft 414kts
21-Feb-18 19:01 43.643322 -111.316349 87 22647ft 398kts
21-Feb-18 19:02 43.648474 -111.168926 87 20755ft 383kts
21-Feb-18 19:03 43.653605 -111.026676 88 18884ft 370kts
21-Feb-18 19:04 43.658708 -110.889644 87 17087ft 351kts
21-Feb-18 19:05 43.663513 -110.764387 87 16896ft 324kts
21-Feb-18 19:06 43.668462 -110.639490 87 16585ft 330kts
21-Feb-18 19:07 43.673348 -110.519768 87 15322ft 317kts
21-Feb-18 19:08 43.678210 -110.403640 87 14885ft 278kts
21-Feb-18 19:09 43.693067 -110.318454 38 14893ft 230kts
21-Feb-18 19:10 43.754517 -110.312894 347 12969ft 227kts
21-Feb-18 19:11 43.812763 -110.331066 336 12865ft 218kts
21-Feb-18 19:12 43.839572 -110.399602 284 12864ft 211kts
21-Feb-18 19:13 43.855899 -110.476568 286 11557ft 206kts
21-Feb-18 19:14 43.866170 -110.548771 243 9891ft 186kts
21-Feb-18 19:15 43.837261 -110.596517 215 9716ft 162kts
21-Feb-18 19:16 43.800465 -110.631579 215 9699ft 162kts
21-Feb-18 19:17 43.762320 -110.662259 200 9486ft 164kts
21-Feb-18 19:18 43.720807 -110.682525 200 8688ft 157kts
21-Feb-18 19:19 43.679735 -110.701887 200 7800ft 155kts
21-Feb-18 19:20 43.639705 -110.721765 199 7046ft 152kts
21-Feb-18 19:21 43.604336 -110.739130 198 6459ft 59kts
21-Feb-18 19:22 43.599752 -110.740015 35 6458ft 7kts
21-Feb-18 19:23 43.602225 -110.738080 109 6458ft 4kts
21-Feb-18 19:24 43.646725 -110.718473 198 7143ft 149kts
21-Feb-18 19:25 43.615102 -110.733843 199 6481ft 148kts
21-Feb-18 19:26 43.622096 -110.730352 199 6613ft 152kts
21-Feb-18 19:27 43.602206 -110.738008 111 6458ft 0kts

Navigation Log

Ident Type
Flight plan parsing failed, navigation log unavailable